createdAt,value
2022-12-08T00:01:40.961Z,0.73
2022-12-08T00:04:09.871Z,1.27
2022-12-08T00:06:58.512Z,1.33
2022-12-08T00:09:37.903Z,1.04
2022-12-08T00:12:09.892Z,1.25
2022-12-08T00:14:39.805Z,1.08
2022-12-08T00:17:10.109Z,0.82
2022-12-08T00:19:39.224Z,1.15
2022-12-08T00:22:10.257Z,1.18
2022-12-08T00:24:40.523Z,0.97
2022-12-08T00:27:09.866Z,1.39
2022-12-08T00:29:38.259Z,1.24
2022-12-08T00:32:07.695Z,0.99
2022-12-08T00:34:36.349Z,1.30
2022-12-08T00:37:04.803Z,1.22
2022-12-08T00:39:34.771Z,1.31
2022-12-08T00:42:15.935Z,1.06
2022-12-08T00:44:45.848Z,1.23
2022-12-08T00:47:15.422Z,1.28
2022-12-08T00:49:43.881Z,1.22
2022-12-08T00:52:13.105Z,1.26
2022-12-08T00:54:42.934Z,1.32
2022-12-08T00:57:11.705Z,1.13
2022-12-08T00:59:40.140Z,0.91
2022-12-08T01:02:08.475Z,1.11
2022-12-08T01:04:36.800Z,1.11
2022-12-08T01:07:05.222Z,1.09
2022-12-08T01:09:33.909Z,1.18
2022-12-08T01:12:03.697Z,1.19
2022-12-08T01:14:32.096Z,1.14
2022-12-08T01:17:00.639Z,1.27
2022-12-08T01:19:29.032Z,1.32
2022-12-08T01:21:57.343Z,1.35
2022-12-08T01:24:25.921Z,1.25
2022-12-08T01:26:54.372Z,1.05
2022-12-08T01:29:24.715Z,1.00
2022-12-08T01:31:53.440Z,1.22
2022-12-08T01:34:21.768Z,1.19
2022-12-08T01:36:50.088Z,0.85
2022-12-08T01:39:19.993Z,1.33
2022-12-08T01:41:49.230Z,1.29
2022-12-08T01:44:54.765Z,1.21
2022-12-08T01:47:26.194Z,1.20
2022-12-08T01:49:54.648Z,1.20
2022-12-08T01:52:27.712Z,1.04
2022-12-08T01:54:59.674Z,0.93
2022-12-08T01:57:31.353Z,1.01
2022-12-08T02:00:04.240Z,1.06
2022-12-08T02:02:40.791Z,1.24
2022-12-08T02:05:10.974Z,1.30
2022-12-08T02:07:39.578Z,0.87
2022-12-08T02:10:09.103Z,1.35
2022-12-08T02:12:37.523Z,1.35
2022-12-08T02:15:08.460Z,0.63
2022-12-08T02:17:50.837Z,1.20
2022-12-08T02:20:26.970Z,1.37
2022-12-08T02:23:03.416Z,1.34
2022-12-08T02:25:43.877Z,1.31
2022-12-08T02:28:38.819Z,1.36
2022-12-08T02:31:17.587Z,1.43
2022-12-08T02:34:14.288Z,1.36
2022-12-08T02:36:51.426Z,1.04
2022-12-08T02:39:29.771Z,1.08
2022-12-08T02:42:08.311Z,1.34
2022-12-08T02:44:43.049Z,1.36
2022-12-08T02:47:15.516Z,1.50
2022-12-08T02:49:45.687Z,1.49
2022-12-08T02:52:43.423Z,1.50
2022-12-08T02:55:20.092Z,1.24
2022-12-08T02:58:21.792Z,1.37
2022-12-08T03:01:04.070Z,1.20
2022-12-08T03:03:40.755Z,1.19
2022-12-08T03:06:19.644Z,1.12
2022-12-08T03:08:56.783Z,1.30
2022-12-08T03:11:31.881Z,1.24
2022-12-08T03:14:04.084Z,1.22
2022-12-08T03:16:34.963Z,1.36
2022-12-08T03:19:12.076Z,1.31
2022-12-08T03:21:43.135Z,1.25
2022-12-08T03:24:12.458Z,1.25
2022-12-08T03:26:47.781Z,1.20
2022-12-08T03:29:16.633Z,1.30
2022-12-08T03:31:50.973Z,1.26
2022-12-08T03:34:20.212Z,1.02
2022-12-08T03:36:49.953Z,1.30
2022-12-08T03:39:18.405Z,1.29
2022-12-08T03:41:47.917Z,1.18
2022-12-08T03:44:16.481Z,1.22
2022-12-08T03:46:45.960Z,1.22
2022-12-08T03:49:14.326Z,1.29
2022-12-08T03:51:42.744Z,1.29
2022-12-08T03:54:12.567Z,1.12
2022-12-08T03:56:41.272Z,1.05
2022-12-08T03:59:10.402Z,1.14
2022-12-08T04:01:38.989Z,1.08
2022-12-08T04:04:07.496Z,1.09
2022-12-08T04:06:35.895Z,1.09
2022-12-08T04:09:04.754Z,1.00
2022-12-08T04:11:34.855Z,1.13
2022-12-08T04:14:03.502Z,1.13
2022-12-08T04:16:31.976Z,1.14
2022-12-08T04:19:00.545Z,1.16
2022-12-08T04:21:29.055Z,1.19
2022-12-08T04:24:01.088Z,1.15
2022-12-08T04:26:30.364Z,1.19
2022-12-08T04:29:00.256Z,1.20
2022-12-08T04:31:28.874Z,1.21
2022-12-08T04:33:57.421Z,1.22
2022-12-08T04:36:25.887Z,1.07
2022-12-08T04:38:54.300Z,1.25
2022-12-08T04:41:22.765Z,1.23
2022-12-08T04:43:51.377Z,1.25
2022-12-08T04:46:21.242Z,1.26
2022-12-08T04:48:49.613Z,1.11
2022-12-08T04:51:19.340Z,1.12
2022-12-08T04:53:48.857Z,1.31
2022-12-08T04:56:19.826Z,1.37
2022-12-08T04:58:48.266Z,1.33
2022-12-08T05:01:16.668Z,1.35
2022-12-08T05:03:46.756Z,1.32
2022-12-08T05:06:16.148Z,1.07
2022-12-08T05:08:45.196Z,1.30
2022-12-08T05:11:15.312Z,1.29
2022-12-08T05:13:43.828Z,1.32
2022-12-08T05:16:14.835Z,1.31
2022-12-08T05:18:44.264Z,1.32
2022-12-08T05:21:13.994Z,1.30
2022-12-08T05:23:42.376Z,1.26
2022-12-08T05:26:10.759Z,1.32
2022-12-08T05:28:42.394Z,1.31
2022-12-08T05:31:11.573Z,1.28
2022-12-08T05:33:40.039Z,1.27
2022-12-08T05:36:09.075Z,1.01
2022-12-08T05:38:39.005Z,1.39
2022-12-08T05:41:08.276Z,1.38
2022-12-08T05:43:36.620Z,1.17
2022-12-08T05:46:05.154Z,1.43
2022-12-08T05:48:33.857Z,1.47
2022-12-08T05:51:02.364Z,1.44
2022-12-08T05:53:30.764Z,1.43
2022-12-08T05:56:00.557Z,1.36
2022-12-08T05:58:28.929Z,1.53
2022-12-08T06:00:57.235Z,1.54
2022-12-08T06:03:25.708Z,1.57
2022-12-08T06:05:54.115Z,1.35
2022-12-08T06:08:22.527Z,1.26
2022-12-08T06:10:51.053Z,1.31
2022-12-08T06:13:20.877Z,1.33
2022-12-08T06:15:49.233Z,1.25
2022-12-08T06:18:17.567Z,1.28
2022-12-08T06:20:45.952Z,1.31
2022-12-08T06:23:14.481Z,1.35
2022-12-08T06:25:42.919Z,1.32
2022-12-08T06:28:11.229Z,1.29
2022-12-08T06:30:40.992Z,1.31
2022-12-08T06:33:09.387Z,1.46
2022-12-08T06:35:38.738Z,1.31
2022-12-08T06:38:07.113Z,1.39
2022-12-08T06:40:35.418Z,1.36
2022-12-08T06:43:03.827Z,1.04
2022-12-08T06:45:32.364Z,1.32
2022-12-08T06:48:02.934Z,1.33
2022-12-08T06:50:32.754Z,1.35
2022-12-08T06:53:05.256Z,1.31
2022-12-08T06:58:23.403Z,1.29
2022-12-08T07:00:51.968Z,1.34
2022-12-08T07:03:21.807Z,1.36
2022-12-08T07:05:50.182Z,1.28
2022-12-08T07:08:18.622Z,1.46
2022-12-08T07:10:46.913Z,1.42
2022-12-08T07:13:15.233Z,1.30
2022-12-08T07:15:43.584Z,1.32
2022-12-08T07:18:11.940Z,1.30
2022-12-08T07:20:41.734Z,1.35
2022-12-08T07:23:10.041Z,1.26
2022-12-08T07:25:38.461Z,1.43
2022-12-08T07:28:11.394Z,1.45
2022-12-08T07:30:40.464Z,1.51
2022-12-08T07:33:09.256Z,1.63
2022-12-08T07:35:38.159Z,1.57
2022-12-08T07:38:12.119Z,1.55
2022-12-08T07:40:40.794Z,1.53
2022-12-08T07:43:09.171Z,1.49
2022-12-08T07:45:37.465Z,1.47
2022-12-08T07:48:06.760Z,1.55
2022-12-08T07:50:35.141Z,1.53
2022-12-08T07:53:03.588Z,1.55
2022-12-08T07:55:34.080Z,1.58
2022-12-08T07:58:02.469Z,1.73
2022-12-08T08:00:30.957Z,1.53
2022-12-08T08:02:59.604Z,1.31
2022-12-08T08:05:28.183Z,1.72
2022-12-08T08:07:56.562Z,1.61
2022-12-08T08:10:25.031Z,1.50
2022-12-08T08:12:54.905Z,1.61
2022-12-08T08:15:23.300Z,1.59
2022-12-08T08:17:52.733Z,1.60
2022-12-08T08:20:22.121Z,1.64
2022-12-08T08:22:52.275Z,1.82
2022-12-08T08:25:23.201Z,1.72
2022-12-08T08:27:51.788Z,1.71
2022-12-08T08:30:21.890Z,1.78
2022-12-08T08:32:51.181Z,1.50
2022-12-08T08:35:20.052Z,1.68
2022-12-08T08:37:49.547Z,1.84
2022-12-08T08:40:18.647Z,1.88
2022-12-08T08:42:46.957Z,1.76
2022-12-08T08:45:15.304Z,2.00
2022-12-08T08:47:45.953Z,2.02
2022-12-08T08:50:14.425Z,2.03
2022-12-08T08:52:42.747Z,1.86
2022-12-08T08:55:11.472Z,2.08
2022-12-08T08:57:40.453Z,2.15
2022-12-08T09:00:10.875Z,2.01
2022-12-08T09:02:39.579Z,2.08
2022-12-08T09:05:10.224Z,2.12
2022-12-08T09:07:38.689Z,1.94
2022-12-08T09:10:08.967Z,2.04
2022-12-08T09:12:37.441Z,1.89
2022-12-08T09:15:06.607Z,1.43
2022-12-08T09:17:34.998Z,1.81
2022-12-08T09:20:03.814Z,1.53
2022-12-08T09:22:33.946Z,1.84
2022-12-08T09:25:02.263Z,1.88
2022-12-08T09:27:30.707Z,1.60
2022-12-08T09:29:59.091Z,1.72
2022-12-08T09:32:27.649Z,1.84
2022-12-08T09:34:56.220Z,1.84
2022-12-08T09:37:24.527Z,1.98
2022-12-08T09:39:54.406Z,1.93
2022-12-08T09:42:35.524Z,1.97
2022-12-08T09:45:07.477Z,1.99
2022-12-08T09:47:41.251Z,2.06
2022-12-08T09:50:14.317Z,1.87
2022-12-08T09:52:46.612Z,1.92
2022-12-08T09:55:23.884Z,2.00
2022-12-08T09:58:02.044Z,2.01
2022-12-08T10:00:30.558Z,1.59
2022-12-08T10:03:00.190Z,2.08
2022-12-08T10:05:33.700Z,2.09
2022-12-08T10:08:10.034Z,2.11
2022-12-08T10:10:44.767Z,2.10
2022-12-08T10:13:21.091Z,2.06
2022-12-08T10:15:59.023Z,1.77
2022-12-08T10:18:30.544Z,2.01
2022-12-08T10:21:06.543Z,2.07
2022-12-08T10:23:37.996Z,2.24
2022-12-08T10:26:12.735Z,2.18
2022-12-08T10:28:44.827Z,2.18
2022-12-08T10:31:23.778Z,2.12
2022-12-08T10:33:59.346Z,2.22
2022-12-08T10:36:47.409Z,2.25
2022-12-08T10:39:33.106Z,2.25
2022-12-08T10:42:10.456Z,2.27
2022-12-08T10:44:51.636Z,2.30
2022-12-08T10:47:23.287Z,2.46
2022-12-08T10:50:08.595Z,2.48
2022-12-08T10:52:40.437Z,2.20
2022-12-08T10:55:17.014Z,2.35
2022-12-08T10:57:49.130Z,2.39
2022-12-08T11:00:19.788Z,2.42
2022-12-08T11:03:00.244Z,2.32
2022-12-08T11:05:33.936Z,2.38
2022-12-08T11:08:03.158Z,2.37
2022-12-08T11:10:36.946Z,2.44
2022-12-08T11:13:13.001Z,2.30
2022-12-08T11:15:42.344Z,2.39
2022-12-08T11:18:23.702Z,2.19
2022-12-08T11:21:02.537Z,2.39
2022-12-08T11:23:32.374Z,2.49
2022-12-08T11:26:07.429Z,2.24
2022-12-08T11:28:37.800Z,2.33
2022-12-08T11:31:14.260Z,2.36
2022-12-08T11:33:44.314Z,2.37
2022-12-08T11:36:16.911Z,2.41
2022-12-08T11:38:48.841Z,2.39
2022-12-08T11:41:20.381Z,2.63
2022-12-08T11:43:55.574Z,2.47
2022-12-08T11:46:27.470Z,2.32
2022-12-08T11:49:05.940Z,2.44
2022-12-08T11:51:38.758Z,2.17
2022-12-08T11:54:17.351Z,2.42
2022-12-08T11:56:49.392Z,2.33
2022-12-08T11:59:28.335Z,2.39
2022-12-08T12:01:57.091Z,2.29
2022-12-08T12:04:31.037Z,2.30
2022-12-08T12:07:40.680Z,2.32
2022-12-08T12:10:28.032Z,2.51
2022-12-08T12:13:17.055Z,2.70
2022-12-08T12:16:40.536Z,2.45
2022-12-08T12:19:15.411Z,2.47
2022-12-08T12:21:46.953Z,2.39
2022-12-08T12:24:25.454Z,2.49
2022-12-08T12:27:00.003Z,2.63
2022-12-08T12:29:31.520Z,2.54
2022-12-08T12:32:04.970Z,2.58
2022-12-08T12:34:36.636Z,2.37
2022-12-08T12:37:10.471Z,2.45
2022-12-08T12:39:51.631Z,2.55
2022-12-08T12:42:42.976Z,2.52
2022-12-08T12:45:28.489Z,2.58
2022-12-08T12:48:22.768Z,2.59
2022-12-08T12:50:51.155Z,2.38
2022-12-08T12:53:51.958Z,2.50
2022-12-08T12:56:48.780Z,2.38
2022-12-08T12:59:33.563Z,2.38
2022-12-08T13:02:02.789Z,2.27
2022-12-08T13:04:37.359Z,2.29
2022-12-08T13:07:06.846Z,2.33
2022-12-08T13:09:39.318Z,2.32
2022-12-08T13:12:13.045Z,2.34
2022-12-08T13:14:47.198Z,2.22
2022-12-08T13:17:24.491Z,2.36
2022-12-08T13:19:58.464Z,2.31
2022-12-08T13:23:03.650Z,2.39
2022-12-08T13:26:09.703Z,2.10
2022-12-08T13:29:16.406Z,2.39
2022-12-08T13:31:50.942Z,2.28
2022-12-08T13:34:31.455Z,2.24
2022-12-08T13:37:22.060Z,2.31
2022-12-08T13:39:55.198Z,2.15
2022-12-08T13:42:31.242Z,2.15
2022-12-08T13:45:39.631Z,2.06
2022-12-08T13:48:30.210Z,2.04
2022-12-08T13:52:59.993Z,1.99
2022-12-08T13:57:03.029Z,1.87
2022-12-08T13:59:31.301Z,1.68
2022-12-08T14:02:04.171Z,1.49
2022-12-08T14:05:17.011Z,1.57
2022-12-08T14:07:21.859Z,1.68
2022-12-08T14:09:52.892Z,1.69
2022-12-08T14:12:23.688Z,1.61
2022-12-08T14:15:03.292Z,1.43
2022-12-08T14:17:32.430Z,1.55
2022-12-08T14:20:02.594Z,1.70
2022-12-08T14:22:35.852Z,1.72
2022-12-08T14:25:08.579Z,1.73
2022-12-08T14:27:38.758Z,1.86
2022-12-08T14:30:09.312Z,1.67
2022-12-08T14:32:44.349Z,1.74
2022-12-08T14:35:23.973Z,1.58
2022-12-08T14:37:55.610Z,1.75
2022-12-08T14:40:29.248Z,1.74
2022-12-08T14:43:13.827Z,1.72
2022-12-08T14:45:49.237Z,1.75
2022-12-08T14:48:25.589Z,1.73
2022-12-08T14:51:09.001Z,1.73
2022-12-08T14:53:41.001Z,1.39
2022-12-08T14:56:20.240Z,1.79
2022-12-08T14:58:50.467Z,2.00
2022-12-08T15:01:23.703Z,1.80
2022-12-08T15:03:52.556Z,1.76
2022-12-08T15:06:23.495Z,1.44
2022-12-08T15:08:58.884Z,1.74
2022-12-08T15:11:37.192Z,1.71
2022-12-08T15:14:05.664Z,1.66
2022-12-08T15:16:40.760Z,1.51
2022-12-08T15:19:27.841Z,1.67
2022-12-08T15:21:58.267Z,1.56
2022-12-08T15:24:29.517Z,1.52
2022-12-08T15:26:59.508Z,1.47
2022-12-08T15:29:31.150Z,1.52
2022-12-08T15:32:01.616Z,1.56
2022-12-08T15:34:31.717Z,1.42
2022-12-08T15:37:00.127Z,1.24
2022-12-08T15:39:37.440Z,1.20
2022-12-08T15:42:14.042Z,1.46
2022-12-08T15:44:42.850Z,1.43
2022-12-08T15:47:18.036Z,1.44
2022-12-08T15:49:47.312Z,1.43
2022-12-08T15:52:17.750Z,1.47
2022-12-08T15:54:46.883Z,1.50
2022-12-08T16:00:51.842Z,1.56
2022-12-08T16:07:26.840Z,1.53
2022-12-08T16:09:12.453Z,1.37
2022-12-08T16:12:06.573Z,1.41
2022-12-08T16:17:27.606Z,1.42
2022-12-08T16:19:56.589Z,1.46
2022-12-08T16:25:20.412Z,1.51
2022-12-08T16:28:23.612Z,1.41
2022-12-08T16:30:41.251Z,1.40
2022-12-08T16:33:10.943Z,1.37
2022-12-08T16:35:39.437Z,1.39
2022-12-08T16:38:07.753Z,1.41
2022-12-08T16:40:56.988Z,1.39
2022-12-08T16:43:24.348Z,1.24
2022-12-08T16:45:54.112Z,1.44
2022-12-08T16:48:22.976Z,1.37
2022-12-08T16:50:51.425Z,1.29
2022-12-08T16:53:19.743Z,1.47
2022-12-08T16:55:48.990Z,1.24
2022-12-08T16:58:18.641Z,1.47
2022-12-08T17:00:47.746Z,1.46
2022-12-08T17:03:18.602Z,1.47
2022-12-08T17:05:47.082Z,1.44
2022-12-08T17:08:15.436Z,1.26
2022-12-08T17:10:44.050Z,1.28
2022-12-08T17:13:13.239Z,1.55
2022-12-08T17:15:41.733Z,1.57
2022-12-08T17:18:10.096Z,1.40
2022-12-08T17:20:41.154Z,1.42
2022-12-08T17:23:09.604Z,1.21
2022-12-08T17:25:38.274Z,1.54
2022-12-08T17:28:06.858Z,1.57
2022-12-08T17:30:35.285Z,1.53
2022-12-08T17:33:03.638Z,1.55
2022-12-08T17:35:32.042Z,1.58
2022-12-08T17:38:01.799Z,1.60
2022-12-08T17:40:30.171Z,1.60
2022-12-08T17:42:58.541Z,1.59
2022-12-08T17:45:26.863Z,1.03
2022-12-08T17:47:55.490Z,1.64
2022-12-08T17:50:24.073Z,1.64
2022-12-08T17:52:52.909Z,1.74
2022-12-08T17:55:22.840Z,1.77
2022-12-08T17:57:51.234Z,1.69
2022-12-08T18:00:20.649Z,0.11
2022-12-08T18:02:49.165Z,1.55
2022-12-08T18:05:17.679Z,1.53
2022-12-08T18:07:46.078Z,1.51
2022-12-08T18:10:14.528Z,1.53
2022-12-08T18:12:45.320Z,1.56
2022-12-08T18:15:17.637Z,1.33
2022-12-08T18:17:46.035Z,1.45
2022-12-08T18:20:15.813Z,1.48
2022-12-08T18:22:44.196Z,1.49
2022-12-08T18:25:13.511Z,1.37
2022-12-08T18:27:44.247Z,1.53
2022-12-08T18:30:17.324Z,1.54
2022-12-08T18:32:45.708Z,1.32
2022-12-08T18:35:14.434Z,1.42
2022-12-08T18:37:44.374Z,1.48
2022-12-08T18:40:13.898Z,1.46
2022-12-08T18:42:44.204Z,1.45
2022-12-08T18:45:15.705Z,1.39
2022-12-08T18:47:46.016Z,1.38
2022-12-08T18:50:14.697Z,1.32
2022-12-08T18:52:43.171Z,1.31
2022-12-08T18:55:11.771Z,1.30
2022-12-08T18:57:42.792Z,1.14
2022-12-08T19:00:17.044Z,1.13
2022-12-08T19:02:46.286Z,1.24
2022-12-08T19:05:16.015Z,1.19
2022-12-08T19:07:45.962Z,1.36
2022-12-08T19:10:14.464Z,1.51
2022-12-08T19:12:43.196Z,1.18
2022-12-08T19:15:13.657Z,1.40
2022-12-08T19:17:42.061Z,1.01
2022-12-08T19:20:11.872Z,1.39
2022-12-08T19:22:41.560Z,1.41
2022-12-08T19:25:13.193Z,1.41
2022-12-08T19:27:42.929Z,1.44
2022-12-08T19:30:15.465Z,1.20
2022-12-08T19:32:45.190Z,1.22
2022-12-08T19:35:15.587Z,1.18
2022-12-08T19:37:45.167Z,1.32
2022-12-08T19:40:32.737Z,1.43
2022-12-08T19:43:19.303Z,1.37
2022-12-08T19:45:50.875Z,1.31
2022-12-08T19:48:21.115Z,1.34
2022-12-08T19:50:51.130Z,1.38
2022-12-08T19:53:21.497Z,1.49
2022-12-08T19:55:51.303Z,1.43
2022-12-08T19:58:21.398Z,1.42
2022-12-08T20:00:53.593Z,1.46
2022-12-08T20:03:24.338Z,1.48
2022-12-08T20:05:55.080Z,1.43
2022-12-08T20:08:24.842Z,1.42
2022-12-08T20:10:56.616Z,1.41
2022-12-08T20:13:46.604Z,1.48
2022-12-08T20:16:19.062Z,1.37
2022-12-08T20:18:50.581Z,0.83
2022-12-08T20:21:20.538Z,1.12
2022-12-08T20:23:50.600Z,1.33
2022-12-08T20:26:22.224Z,1.30
2022-12-08T20:28:53.673Z,1.26
2022-12-08T20:31:26.624Z,1.24
2022-12-08T20:33:56.473Z,1.25
2022-12-08T20:36:25.991Z,1.27
2022-12-08T20:38:56.349Z,1.27
2022-12-08T20:41:24.927Z,1.25
2022-12-08T20:43:54.134Z,1.25
2022-12-08T20:46:24.574Z,1.33
2022-12-08T20:48:53.654Z,1.33
2022-12-08T20:51:25.679Z,1.31
2022-12-08T20:53:56.951Z,1.41
2022-12-08T20:56:26.384Z,1.37
2022-12-08T20:58:55.735Z,1.38
2022-12-08T21:01:26.808Z,1.42
2022-12-08T21:03:56.190Z,1.43
2022-12-08T21:06:27.035Z,1.36
2022-12-08T21:08:55.946Z,1.25
2022-12-08T21:11:24.494Z,1.49
2022-12-08T21:13:53.420Z,1.49
2022-12-08T21:16:21.847Z,1.51
2022-12-08T21:18:52.322Z,1.42
2022-12-08T21:21:20.829Z,1.33
2022-12-08T21:23:49.597Z,1.47
2022-12-08T21:26:19.586Z,1.48
2022-12-08T21:28:49.224Z,1.23
2022-12-08T21:31:21.664Z,1.54
2022-12-08T21:33:51.652Z,1.42
2022-12-08T21:36:22.939Z,1.41
2022-12-08T21:38:52.254Z,1.48
2022-12-08T21:41:42.079Z,1.49
2022-12-08T21:44:13.473Z,1.42
2022-12-08T21:46:42.308Z,1.39
2022-12-08T21:49:12.641Z,1.32
2022-12-08T21:51:42.541Z,1.09
2022-12-08T21:54:18.354Z,1.01
2022-12-08T21:56:49.077Z,1.30
2022-12-08T21:59:18.128Z,1.41
2022-12-08T22:01:46.842Z,1.32
2022-12-08T22:04:21.807Z,1.28
2022-12-08T22:06:50.452Z,1.36
2022-12-08T22:09:19.988Z,1.44
2022-12-08T22:11:48.580Z,1.15
2022-12-08T22:14:17.113Z,1.39
2022-12-08T22:16:45.920Z,1.37
2022-12-08T22:19:14.336Z,1.38
2022-12-08T22:21:44.723Z,1.39
2022-12-08T22:24:13.113Z,1.39
2022-12-08T22:26:41.411Z,1.42
2022-12-08T22:29:10.341Z,1.42
2022-12-08T22:31:38.793Z,1.42
2022-12-08T22:34:07.489Z,1.39
2022-12-08T22:36:36.390Z,1.40
2022-12-08T22:39:06.643Z,1.29
2022-12-08T22:41:35.100Z,1.51
2022-12-08T22:44:06.689Z,0.78
2022-12-08T22:46:35.894Z,1.41
2022-12-08T22:49:05.176Z,1.40
2022-12-08T22:51:36.357Z,1.43
2022-12-08T22:54:06.850Z,1.44
2022-12-08T22:56:35.520Z,1.43
2022-12-08T22:59:04.033Z,1.47
2022-12-08T23:01:34.143Z,1.47
2022-12-08T23:04:03.913Z,1.46
2022-12-08T23:06:33.800Z,1.19
2022-12-08T23:09:02.368Z,1.43
2022-12-08T23:11:32.789Z,1.45
2022-12-08T23:14:02.099Z,1.27
2022-12-08T23:16:33.591Z,1.19
2022-12-08T23:19:02.288Z,1.44
2022-12-08T23:21:31.142Z,1.40
2022-12-08T23:24:01.160Z,1.37
2022-12-08T23:26:33.266Z,1.31
2022-12-08T23:29:02.163Z,1.33
2022-12-08T23:31:30.832Z,1.05
2022-12-08T23:33:59.552Z,1.33
2022-12-08T23:36:28.101Z,1.41
2022-12-08T23:38:57.190Z,1.34
2022-12-08T23:41:25.479Z,1.22
2022-12-08T23:43:55.448Z,1.32
2022-12-08T23:46:24.727Z,1.35
2022-12-08T23:48:53.779Z,1.15
2022-12-08T23:51:22.841Z,0.97
2022-12-08T23:53:51.411Z,1.17
2022-12-08T23:56:23.178Z,0.80
2022-12-08T23:58:55.823Z,1.02
